createdAt,value
2017-08-06T00:02:13.234Z,96.70
2017-08-06T00:04:40.811Z,96.70
2017-08-06T00:07:08.327Z,96.60
2017-08-06T00:09:35.861Z,97.00
2017-08-06T00:12:03.386Z,97.10
2017-08-06T00:14:31.328Z,97.70
2017-08-06T00:16:58.867Z,97.70
2017-08-06T00:19:26.382Z,97.40
2017-08-06T00:21:53.948Z,97.20
2017-08-06T00:24:21.481Z,97.20
2017-08-06T00:26:49.029Z,97.30
2017-08-06T00:29:16.534Z,97.30
2017-08-06T00:31:44.062Z,97.50
2017-08-06T00:34:11.984Z,97.60
2017-08-06T00:36:39.520Z,97.60
2017-08-06T00:39:07.027Z,97.80
2017-08-06T00:41:34.544Z,97.60
2017-08-06T00:44:02.082Z,97.80
2017-08-06T00:46:29.608Z,97.70
2017-08-06T00:48:57.154Z,97.70
2017-08-06T00:51:24.662Z,97.70
2017-08-06T00:53:52.190Z,97.70
2017-08-06T00:56:20.110Z,97.70
2017-08-06T00:58:47.665Z,97.70
2017-08-06T01:01:15.178Z,97.80
2017-08-06T01:03:43.108Z,97.10
2017-08-06T01:06:10.671Z,97.10
2017-08-06T01:08:38.187Z,97.40
2017-08-06T01:11:05.724Z,97.60
2017-08-06T01:13:33.250Z,97.10
2017-08-06T01:16:00.783Z,96.90
2017-08-06T01:18:29.437Z,96.90
2017-08-06T01:20:56.975Z,96.40
2017-08-06T01:23:24.904Z,96.80
2017-08-06T01:25:52.429Z,96.80
2017-08-06T01:28:19.977Z,96.50
2017-08-06T01:30:47.505Z,96.60
2017-08-06T01:33:15.034Z,96.00
2017-08-06T01:35:42.572Z,96.50
2017-08-06T01:38:10.118Z,96.60
2017-08-06T01:40:37.638Z,96.90
2017-08-06T01:43:05.226Z,96.80
2017-08-06T01:45:32.755Z,96.80
2017-08-06T01:48:00.308Z,96.80
2017-08-06T01:50:27.856Z,96.90
2017-08-06T01:52:55.373Z,96.50
2017-08-06T01:55:22.912Z,96.20
2017-08-06T01:57:51.277Z,96.70
2017-08-06T02:00:18.828Z,96.40
2017-08-06T02:02:46.764Z,95.90
2017-08-06T02:05:14.345Z,95.90
2017-08-06T02:07:41.866Z,95.90
2017-08-06T02:10:09.403Z,96.40
2017-08-06T02:12:36.944Z,96.40
2017-08-06T02:15:04.875Z,95.80
2017-08-06T02:17:32.413Z,95.80
2017-08-06T02:19:59.925Z,96.10
2017-08-06T02:22:27.863Z,96.40
2017-08-06T02:24:55.369Z,96.40
2017-08-06T02:27:22.881Z,96.20
2017-08-06T02:29:50.422Z,96.10
2017-08-06T02:32:17.953Z,96.20
2017-08-06T02:34:45.493Z,96.10
2017-08-06T02:37:13.031Z,96.30
2017-08-06T02:39:40.987Z,96.00
2017-08-06T02:42:08.511Z,96.00
2017-08-06T02:44:36.040Z,95.80
2017-08-06T02:47:03.579Z,95.90
2017-08-06T02:49:31.095Z,95.50
2017-08-06T02:51:58.663Z,95.70
2017-08-06T02:54:26.176Z,95.30
2017-08-06T02:56:53.722Z,95.90
2017-08-06T02:59:21.231Z,95.40
2017-08-06T03:01:48.785Z,95.70
2017-08-06T03:04:16.310Z,95.80
2017-08-06T03:06:43.843Z,95.60
2017-08-06T03:09:11.428Z,95.60
2017-08-06T03:11:38.950Z,95.50
2017-08-06T03:14:06.880Z,96.00
2017-08-06T03:16:34.403Z,96.00
2017-08-06T03:19:01.963Z,96.00
2017-08-06T03:21:29.484Z,96.70
2017-08-06T03:23:57.431Z,96.20
2017-08-06T03:26:24.973Z,96.20
2017-08-06T03:28:52.536Z,96.30
2017-08-06T03:31:20.084Z,96.70
2017-08-06T03:33:47.605Z,96.90
2017-08-06T03:36:15.138Z,97.00
2017-08-06T03:38:42.668Z,96.70
2017-08-06T03:41:10.208Z,97.00
2017-08-06T03:43:37.754Z,97.10
2017-08-06T03:46:05.272Z,97.10
2017-08-06T03:48:33.214Z,97.10
2017-08-06T03:51:00.755Z,97.10
2017-08-06T03:53:28.957Z,97.10
2017-08-06T03:55:56.900Z,97.00
2017-08-06T03:58:24.433Z,97.00
2017-08-06T04:00:51.968Z,96.80
2017-08-06T04:03:19.548Z,97.00
2017-08-06T04:05:47.079Z,97.00
2017-08-06T04:08:14.997Z,97.10
2017-08-06T04:10:42.556Z,97.10
2017-08-06T04:13:10.090Z,97.00
2017-08-06T04:15:37.629Z,96.80
2017-08-06T04:18:05.171Z,96.90
2017-08-06T04:20:32.748Z,97.20
2017-08-06T04:23:00.281Z,97.10
2017-08-06T04:25:27.824Z,97.00
2017-08-06T04:27:55.365Z,96.90
2017-08-06T04:30:22.888Z,96.70
2017-08-06T04:32:50.433Z,97.00
2017-08-06T04:35:18.345Z,97.00
2017-08-06T04:37:45.904Z,97.00
2017-08-06T04:40:13.432Z,96.70
2017-08-06T04:42:40.972Z,96.60
2017-08-06T04:45:08.905Z,96.20
2017-08-06T04:47:36.444Z,96.20
2017-08-06T04:50:04.000Z,96.20
2017-08-06T04:52:31.537Z,96.30
2017-08-06T04:54:59.077Z,96.20
2017-08-06T04:57:26.621Z,96.70
2017-08-06T04:59:54.560Z,95.90
2017-08-06T05:02:22.103Z,95.90
2017-08-06T05:04:49.636Z,96.40
2017-08-06T05:07:17.200Z,96.90
2017-08-06T05:09:44.737Z,96.50
2017-08-06T05:12:12.340Z,96.40
2017-08-06T05:14:39.892Z,96.10
2017-08-06T05:17:07.427Z,96.10
2017-08-06T05:19:35.016Z,95.00
2017-08-06T05:22:02.572Z,94.80
2017-08-06T05:24:30.107Z,95.00
2017-08-06T05:26:57.658Z,95.20
2017-08-06T05:29:25.302Z,95.10
2017-08-06T05:31:53.237Z,95.30
2017-08-06T05:34:20.774Z,95.30
2017-08-06T05:36:48.355Z,94.20
2017-08-06T05:39:15.884Z,93.90
2017-08-06T05:41:43.511Z,93.80
2017-08-06T05:44:11.443Z,93.50
2017-08-06T05:46:39.010Z,93.50
2017-08-06T05:49:06.970Z,92.60
2017-08-06T05:51:34.522Z,92.60
2017-08-06T05:54:02.061Z,92.90
2017-08-06T05:56:30.219Z,91.00
2017-08-06T05:58:57.779Z,89.90
2017-08-06T06:01:25.290Z,90.80
2017-08-06T06:03:52.812Z,91.90
2017-08-06T06:06:20.463Z,93.40
2017-08-06T06:08:48.094Z,93.60
2017-08-06T06:11:16.119Z,93.30
2017-08-06T06:13:43.666Z,93.30
2017-08-06T06:16:11.177Z,94.20
2017-08-06T06:18:38.764Z,94.00
2017-08-06T06:21:06.311Z,93.70
2017-08-06T06:23:33.867Z,93.60
2017-08-06T06:26:01.431Z,94.00
2017-08-06T06:28:29.639Z,94.10
2017-08-06T06:30:57.222Z,93.70
2017-08-06T06:33:25.263Z,93.60
2017-08-06T06:35:52.820Z,93.60
2017-08-06T06:38:20.353Z,94.00
2017-08-06T06:40:47.955Z,93.90
2017-08-06T06:43:15.536Z,94.30
2017-08-06T06:45:43.110Z,92.80
2017-08-06T06:48:10.666Z,91.50
2017-08-06T06:50:38.273Z,90.80
2017-08-06T06:53:05.798Z,91.20
2017-08-06T06:55:33.362Z,91.30
2017-08-06T06:58:00.927Z,90.50
2017-08-06T07:00:28.710Z,91.80
2017-08-06T07:02:56.248Z,91.40
2017-08-06T07:05:23.884Z,91.30
2017-08-06T07:07:51.453Z,91.10
2017-08-06T07:10:20.134Z,92.10
2017-08-06T07:12:47.731Z,92.50
2017-08-06T07:15:15.276Z,91.50
2017-08-06T07:17:42.849Z,91.40
2017-08-06T07:20:10.403Z,91.10
2017-08-06T07:22:37.961Z,90.90
2017-08-06T07:25:05.485Z,91.50
2017-08-06T07:27:33.086Z,91.40
2017-08-06T07:30:00.740Z,91.60
2017-08-06T07:32:28.458Z,91.30
2017-08-06T07:34:56.006Z,92.00
2017-08-06T07:37:24.184Z,92.20
2017-08-06T07:39:52.149Z,90.90
2017-08-06T07:42:19.691Z,90.90
2017-08-06T07:44:47.291Z,90.80
2017-08-06T07:47:14.827Z,88.80
2017-08-06T07:49:42.783Z,87.60
2017-08-06T07:52:10.405Z,87.60
2017-08-06T07:54:38.112Z,88.60
2017-08-06T07:57:06.048Z,91.40
2017-08-06T07:59:33.733Z,91.40
2017-08-06T08:02:01.307Z,88.30
2017-08-06T08:04:29.229Z,88.10
2017-08-06T08:06:56.784Z,88.00
2017-08-06T08:09:24.365Z,88.40
2017-08-06T08:11:51.950Z,86.70
2017-08-06T08:14:19.486Z,86.30
2017-08-06T08:16:47.021Z,86.20
2017-08-06T08:19:14.639Z,86.60
2017-08-06T08:21:42.216Z,86.70
2017-08-06T08:24:09.797Z,87.00
2017-08-06T08:26:37.558Z,88.20
2017-08-06T08:29:05.135Z,87.30
2017-08-06T08:31:32.689Z,85.80
2017-08-06T08:34:00.853Z,84.60
2017-08-06T08:36:28.399Z,84.20
2017-08-06T08:38:55.977Z,81.60
2017-08-06T08:41:23.592Z,82.00
2017-08-06T08:43:51.149Z,82.10
2017-08-06T08:46:19.101Z,81.10
2017-08-06T08:48:46.640Z,81.10
2017-08-06T08:51:14.161Z,79.70
2017-08-06T08:53:41.705Z,76.00
2017-08-06T08:56:09.422Z,73.70
2017-08-06T08:58:37.067Z,76.10
2017-08-06T09:01:04.620Z,76.70
2017-08-06T09:03:32.178Z,76.50
2017-08-06T09:06:01.937Z,76.40
2017-08-06T09:08:30.691Z,76.40
2017-08-06T09:11:04.402Z,77.30
2017-08-06T09:13:32.318Z,79.10
2017-08-06T09:15:59.936Z,79.10
2017-08-06T09:18:27.548Z,76.90
2017-08-06T09:20:55.135Z,75.80
2017-08-06T09:23:22.889Z,76.40
2017-08-06T09:25:50.446Z,75.00
2017-08-06T09:28:18.006Z,77.30
2017-08-06T09:30:46.447Z,77.00
2017-08-06T09:33:14.307Z,78.00
2017-08-06T09:35:42.040Z,77.70
2017-08-06T09:38:09.669Z,76.10
2017-08-06T09:40:37.221Z,75.80
2017-08-06T09:43:04.802Z,73.00
2017-08-06T09:45:32.488Z,72.80
2017-08-06T09:48:00.988Z,72.30
2017-08-06T09:50:29.064Z,71.70
2017-08-06T09:52:56.619Z,71.40
2017-08-06T09:55:24.141Z,71.20
2017-08-06T09:57:51.742Z,72.20
2017-08-06T10:00:19.340Z,72.10
2017-08-06T10:02:46.837Z,71.90
2017-08-06T10:05:14.758Z,68.30
2017-08-06T10:07:42.359Z,68.30
2017-08-06T10:10:10.290Z,67.70
2017-08-06T10:12:37.839Z,67.70
2017-08-06T10:15:05.380Z,68.80
2017-08-06T10:17:32.928Z,69.80
2017-08-06T10:20:00.496Z,67.80
2017-08-06T10:22:28.017Z,67.50
2017-08-06T10:24:55.620Z,68.50
2017-08-06T10:27:23.158Z,67.20
2017-08-06T10:29:50.683Z,66.40
2017-08-06T10:32:18.586Z,65.10
2017-08-06T10:34:46.169Z,65.10
2017-08-06T10:37:13.704Z,66.70
2017-08-06T10:39:41.217Z,64.30
2017-08-06T10:42:08.768Z,63.60
2017-08-06T10:44:36.369Z,63.80
2017-08-06T10:47:03.884Z,65.80
2017-08-06T10:49:31.513Z,65.70
2017-08-06T10:52:00.276Z,66.20
2017-08-06T10:54:27.799Z,64.20
2017-08-06T10:56:55.336Z,64.40
2017-08-06T10:59:22.902Z,62.10
2017-08-06T11:01:50.457Z,63.50
2017-08-06T11:04:17.972Z,64.00
2017-08-06T11:06:45.654Z,63.10
2017-08-06T11:09:13.206Z,62.30
2017-08-06T11:11:40.828Z,62.10
2017-08-06T11:14:08.742Z,56.70
2017-08-06T11:16:36.341Z,56.70
2017-08-06T11:19:03.862Z,59.40
2017-08-06T11:21:31.423Z,57.80
2017-08-06T11:23:59.704Z,55.00
2017-08-06T11:29:01.119Z,59.00
2017-08-06T11:31:28.725Z,61.00
2017-08-06T11:33:56.293Z,59.90
2017-08-06T11:36:23.795Z,59.10
2017-08-06T11:38:51.382Z,58.30
2017-08-06T11:41:18.959Z,57.00
2017-08-06T11:43:46.479Z,54.90
2017-08-06T11:46:14.111Z,57.40
2017-08-06T11:48:42.042Z,57.10
2017-08-06T11:51:09.627Z,57.10
2017-08-06T11:53:37.150Z,56.30
2017-08-06T11:56:04.683Z,56.60
2017-08-06T11:58:32.195Z,57.90
2017-08-06T12:00:59.875Z,58.00
2017-08-06T12:03:27.782Z,60.30
2017-08-06T12:05:55.437Z,60.20
2017-08-06T12:08:23.033Z,57.00
2017-08-06T12:10:50.556Z,57.00
2017-08-06T12:13:18.233Z,56.60
2017-08-06T12:15:45.791Z,57.50
2017-08-06T12:18:13.321Z,56.80
2017-08-06T12:20:40.878Z,58.00
2017-08-06T12:23:08.446Z,57.70
2017-08-06T12:25:35.980Z,56.50
2017-08-06T12:28:03.966Z,58.50
2017-08-06T12:30:31.519Z,58.50
2017-08-06T12:32:59.732Z,57.80
2017-08-06T12:35:27.251Z,59.20
2017-08-06T12:37:54.833Z,55.60
2017-08-06T12:40:22.415Z,56.20
2017-08-06T12:42:49.976Z,58.20
2017-08-06T12:45:17.582Z,55.20
2017-08-06T12:47:45.186Z,55.10
2017-08-06T12:50:12.746Z,54.70
2017-08-06T12:52:40.369Z,55.60
2017-08-06T12:55:08.039Z,57.40
2017-08-06T12:57:35.574Z,55.80
2017-08-06T13:00:03.530Z,58.00
2017-08-06T13:02:31.440Z,58.80
2017-08-06T13:04:59.439Z,58.80
2017-08-06T13:07:26.971Z,55.60
2017-08-06T13:09:54.591Z,54.70
2017-08-06T13:12:22.630Z,55.50
2017-08-06T13:14:50.146Z,55.50
2017-08-06T13:17:17.719Z,54.80
2017-08-06T13:19:45.251Z,54.60
2017-08-06T13:22:12.795Z,53.50
2017-08-06T13:24:40.707Z,52.60
2017-08-06T13:27:08.284Z,52.60
2017-08-06T13:29:35.871Z,53.50
2017-08-06T13:32:03.547Z,55.20
2017-08-06T13:34:31.944Z,53.60
2017-08-06T13:36:59.934Z,53.60
2017-08-06T13:39:27.678Z,55.60
2017-08-06T13:41:55.224Z,54.10
2017-08-06T13:44:23.218Z,52.40
2017-08-06T13:46:50.935Z,53.90
2017-08-06T13:49:18.967Z,51.60
2017-08-06T13:51:46.557Z,51.60
2017-08-06T13:54:14.498Z,52.30
2017-08-06T13:56:42.741Z,50.50
2017-08-06T13:59:10.385Z,51.60
2017-08-06T14:01:37.908Z,53.90
2017-08-06T14:04:05.461Z,52.80
2017-08-06T14:06:33.070Z,52.00
2017-08-06T14:09:00.578Z,52.60
2017-08-06T14:11:28.183Z,53.00
2017-08-06T14:13:55.774Z,53.60
2017-08-06T14:16:23.315Z,53.80
2017-08-06T14:18:50.853Z,54.70
2017-08-06T14:21:18.419Z,54.10
2017-08-06T14:23:45.943Z,54.00
2017-08-06T14:26:13.486Z,54.80
2017-08-06T14:28:41.021Z,54.20
2017-08-06T14:31:08.711Z,55.70
2017-08-06T14:33:36.324Z,54.70
2017-08-06T14:36:03.821Z,52.30
2017-08-06T14:38:31.416Z,52.20
2017-08-06T14:40:59.338Z,52.90
2017-08-06T14:43:26.948Z,52.90
2017-08-06T14:45:54.474Z,51.80
2017-08-06T14:48:21.994Z,51.50
2017-08-06T14:50:49.527Z,52.30
2017-08-06T14:53:17.134Z,52.60
2017-08-06T14:55:44.690Z,52.40
2017-08-06T14:58:12.214Z,52.10
2017-08-06T15:00:40.967Z,52.20
2017-08-06T15:03:08.901Z,54.50
2017-08-06T15:05:36.505Z,54.50
2017-08-06T15:08:04.099Z,52.50
2017-08-06T15:10:31.609Z,52.60
2017-08-06T15:13:01.371Z,52.30
2017-08-06T15:15:29.531Z,52.20
2017-08-06T15:17:57.092Z,50.90
2017-08-06T15:20:24.704Z,51.40
2017-08-06T15:22:52.651Z,52.80
2017-08-06T15:25:21.374Z,52.80
2017-08-06T15:27:49.427Z,52.20
2017-08-06T15:30:16.939Z,52.20
2017-08-06T15:32:44.624Z,51.30
2017-08-06T15:35:12.323Z,51.90
2017-08-06T15:37:40.382Z,53.80
2017-08-06T15:40:08.353Z,53.80
2017-08-06T15:42:35.903Z,53.70
2017-08-06T15:45:03.476Z,54.00
2017-08-06T15:47:31.012Z,53.70
2017-08-06T15:49:59.184Z,53.20
2017-08-06T15:52:27.216Z,53.60
2017-08-06T15:54:54.993Z,53.60
2017-08-06T15:57:22.575Z,54.30
2017-08-06T15:59:50.340Z,55.30
2017-08-06T16:02:17.861Z,54.00
2017-08-06T16:04:45.576Z,54.00
2017-08-06T16:07:13.136Z,52.50
2017-08-06T16:09:41.017Z,53.50
2017-08-06T16:12:08.545Z,53.80
2017-08-06T16:14:36.287Z,53.60
2017-08-06T16:17:03.812Z,52.20
2017-08-06T16:19:31.503Z,53.30
2017-08-06T16:21:59.250Z,53.30
2017-08-06T16:24:26.809Z,54.00
2017-08-06T16:26:54.328Z,53.70
2017-08-06T16:29:22.120Z,53.10
2017-08-06T16:31:49.626Z,53.00
2017-08-06T16:34:17.463Z,53.60
2017-08-06T16:36:45.007Z,54.40
2017-08-06T16:39:12.764Z,52.20
2017-08-06T16:41:40.298Z,52.50
2017-08-06T16:44:07.937Z,52.60
2017-08-06T16:46:35.624Z,53.60
2017-08-06T16:49:03.611Z,52.90
2017-08-06T16:51:31.335Z,52.90
2017-08-06T16:53:59.336Z,53.40
2017-08-06T16:56:27.148Z,53.90
2017-08-06T16:58:54.678Z,53.90
2017-08-06T17:01:22.368Z,56.60
2017-08-06T17:03:49.940Z,55.80
2017-08-06T17:06:17.607Z,55.40
2017-08-06T17:08:45.155Z,55.10
2017-08-06T17:11:12.875Z,55.50
2017-08-06T17:13:40.406Z,54.30
2017-08-06T17:16:08.082Z,54.10
2017-08-06T17:18:35.680Z,53.60
2017-08-06T17:21:03.468Z,54.30
2017-08-06T17:23:31.156Z,54.80
2017-08-06T17:25:58.797Z,56.20
2017-08-06T17:28:26.794Z,55.90
2017-08-06T17:30:54.531Z,55.90
2017-08-06T17:33:22.485Z,55.80
2017-08-06T17:35:50.017Z,55.80
2017-08-06T17:38:17.568Z,56.10
2017-08-06T17:40:45.124Z,56.70
2017-08-06T17:43:12.638Z,56.00
2017-08-06T17:45:41.449Z,56.40
2017-08-06T17:48:09.287Z,56.40
2017-08-06T17:50:37.277Z,56.40
2017-08-06T17:53:06.004Z,56.30
2017-08-06T17:55:33.585Z,56.30
2017-08-06T17:58:01.309Z,56.20
2017-08-06T18:00:29.642Z,56.80
2017-08-06T18:02:57.616Z,57.80
2017-08-06T18:05:25.181Z,58.90
2017-08-06T18:07:52.995Z,60.60
2017-08-06T18:10:21.557Z,61.70
2017-08-06T18:12:49.305Z,61.20
2017-08-06T18:15:17.037Z,61.60
2017-08-06T18:17:44.726Z,62.20
2017-08-06T18:20:12.564Z,63.20
2017-08-06T18:22:40.147Z,64.20
2017-08-06T18:25:08.135Z,64.40
2017-08-06T18:27:35.693Z,64.90
2017-08-06T18:30:04.282Z,64.90
2017-08-06T18:32:31.867Z,65.20
2017-08-06T18:35:00.148Z,66.70
2017-08-06T18:37:27.715Z,67.20
2017-08-06T18:39:55.323Z,65.90
2017-08-06T18:42:22.902Z,65.50
2017-08-06T18:44:50.471Z,65.90
2017-08-06T18:47:18.023Z,66.40
2017-08-06T18:49:45.549Z,66.70
2017-08-06T18:52:13.116Z,68.20
2017-08-06T18:54:40.615Z,69.20
2017-08-06T18:57:08.207Z,69.80
2017-08-06T18:59:35.946Z,69.70
2017-08-06T19:02:03.522Z,69.50
2017-08-06T19:04:31.058Z,69.30
2017-08-06T19:06:58.778Z,69.80
2017-08-06T19:09:26.295Z,70.30
2017-08-06T19:11:53.825Z,70.00
2017-08-06T19:14:21.326Z,70.70
2017-08-06T19:16:49.007Z,70.70
2017-08-06T19:19:16.581Z,71.70
2017-08-06T19:21:44.107Z,72.60
2017-08-06T19:24:11.642Z,72.10
2017-08-06T19:26:39.632Z,72.30
2017-08-06T19:29:07.309Z,72.20
2017-08-06T19:31:34.827Z,72.60
2017-08-06T19:34:02.384Z,73.10
2017-08-06T19:36:30.558Z,73.20
2017-08-06T19:38:59.193Z,73.60
2017-08-06T19:41:26.721Z,73.60
2017-08-06T19:43:54.248Z,73.80
2017-08-06T19:46:21.802Z,74.30
2017-08-06T19:48:49.774Z,74.70
2017-08-06T19:51:17.432Z,74.70
2017-08-06T19:53:44.981Z,74.80
2017-08-06T19:56:12.497Z,74.90
2017-08-06T19:58:40.069Z,75.20
2017-08-06T20:01:08.386Z,75.50
2017-08-06T20:03:35.975Z,76.20
2017-08-06T20:06:03.495Z,76.00
2017-08-06T20:08:31.020Z,76.20
2017-08-06T20:10:58.598Z,76.90
2017-08-06T20:13:26.133Z,76.50
2017-08-06T20:15:53.640Z,76.20
2017-08-06T20:18:21.995Z,76.20
2017-08-06T20:20:50.253Z,76.90
2017-08-06T20:23:17.822Z,77.00
2017-08-06T20:25:45.338Z,77.10
2017-08-06T20:28:12.874Z,77.80
2017-08-06T20:30:40.789Z,78.20
2017-08-06T20:33:08.323Z,78.20
2017-08-06T20:35:35.851Z,77.80
2017-08-06T20:38:03.383Z,77.80
2017-08-06T20:40:30.920Z,78.20
2017-08-06T20:42:58.562Z,78.40
2017-08-06T20:45:26.109Z,78.60
2017-08-06T20:47:53.634Z,78.50
2017-08-06T20:50:21.280Z,79.00
2017-08-06T20:52:48.853Z,79.40
2017-08-06T20:55:16.423Z,79.60
2017-08-06T20:57:44.552Z,79.80
2017-08-06T21:00:12.088Z,79.60
2017-08-06T21:02:39.855Z,79.50
2017-08-06T21:05:07.368Z,79.70
2017-08-06T21:07:34.894Z,80.20
2017-08-06T21:10:02.417Z,80.70
2017-08-06T21:12:29.957Z,81.00
2017-08-06T21:14:57.868Z,80.80
2017-08-06T21:17:25.404Z,80.80
2017-08-06T21:19:52.949Z,80.80
2017-08-06T21:22:20.493Z,80.60
2017-08-06T21:24:48.043Z,80.60
2017-08-06T21:27:15.971Z,81.20
2017-08-06T21:29:43.534Z,81.10
2017-08-06T21:32:11.145Z,80.90
2017-08-06T21:34:38.743Z,80.80
2017-08-06T21:37:06.537Z,81.70
2017-08-06T21:39:34.085Z,80.90
2017-08-06T21:42:01.590Z,81.10
2017-08-06T21:44:29.093Z,81.10
2017-08-06T21:46:56.728Z,80.90
2017-08-06T21:49:24.244Z,80.90
2017-08-06T21:51:52.203Z,80.80
2017-08-06T21:54:19.726Z,80.80
2017-08-06T21:56:47.416Z,81.60
2017-08-06T21:59:14.946Z,81.60
2017-08-06T22:01:42.486Z,81.80
2017-08-06T22:04:10.015Z,81.80
2017-08-06T22:06:37.612Z,82.40
2017-08-06T22:09:05.145Z,82.00
2017-08-06T22:11:32.655Z,81.80
2017-08-06T22:14:00.214Z,82.00
2017-08-06T22:16:27.820Z,82.00
2017-08-06T22:18:55.381Z,81.80
2017-08-06T22:21:22.911Z,81.80
2017-08-06T22:23:50.454Z,82.00
2017-08-06T22:26:17.990Z,81.40
2017-08-06T22:28:46.588Z,81.80
2017-08-06T22:31:14.102Z,82.00
2017-08-06T22:33:42.126Z,82.20
2017-08-06T22:36:09.869Z,82.30
2017-08-06T22:38:37.366Z,82.00
2017-08-06T22:41:05.304Z,82.10
2017-08-06T22:43:32.822Z,82.10
2017-08-06T22:46:00.709Z,81.80
2017-08-06T22:48:28.325Z,81.90
2017-08-06T22:50:55.888Z,81.80
2017-08-06T22:53:23.802Z,81.70
2017-08-06T22:55:51.374Z,81.70
2017-08-06T22:58:18.905Z,81.80
2017-08-06T23:00:47.360Z,81.60
2017-08-06T23:03:14.910Z,81.90
2017-08-06T23:05:42.437Z,81.80
2017-08-06T23:08:10.000Z,81.50
2017-08-06T23:10:37.518Z,81.20
2017-08-06T23:13:05.053Z,81.10
2017-08-06T23:15:32.569Z,80.70
2017-08-06T23:18:00.115Z,81.50
2017-08-06T23:20:27.625Z,81.80
2017-08-06T23:22:55.134Z,81.70
2017-08-06T23:25:22.682Z,81.50
2017-08-06T23:27:50.194Z,80.70
2017-08-06T23:30:17.743Z,81.10
2017-08-06T23:32:46.230Z,81.20
2017-08-06T23:35:13.766Z,81.50
2017-08-06T23:37:41.715Z,81.10
2017-08-06T23:40:09.249Z,81.10
2017-08-06T23:42:36.799Z,80.70
2017-08-06T23:45:04.360Z,80.60
2017-08-06T23:47:31.873Z,80.80
2017-08-06T23:49:59.783Z,80.60
2017-08-06T23:52:27.758Z,80.50
2017-08-06T23:54:55.309Z,80.80
2017-08-06T23:57:22.849Z,81.10
2017-08-06T23:59:50.377Z,81.10
